»·PEaware :: N791JR KSAN-KCNO

N791JR :: KSAN-KCNO

FLIGHT INFORMATION

Flight Status: Arrived
Operator: Privately registered:
United States
More flights under this callsign
Pilot: Carson T. (20437)
Aircraft: CESSNA 172 SKYHAWK
(C172)
More flights by this aircraft type
Origin: KSAN San Diego Intl-Lindbergh
United States
Destination: KCNO Chino
United States
More flights between these airports :: More routes between these airports
Route: +OCN V23 DANAH V363 POXKU V8 PDZ
File this flight plan on PilotEdge
Remarks: TEC route SANP19
Altitude:
(Current/Filed)
6,000ft
Speed:
(Current/Filed)
120kts
Departed: 08-Nov-18 02:17 PM
Arrived: 08-Nov-18 03:14 PM
Distance/Time
Traveled:
78nm/0:57
Distance/Time
To Go:
Arrived

Flight Plot

Page will automatically refresh every two minutes.


Map Options




Map Legend


Flown Route
Filed Route
Departure Airport
Arrival Airport
Navaid (VOR, NDB)
Fix

Horizontal Profiles

Position Reports

Time Latitude Longitude Heading Altitude Ground
Speed
08-Nov-18 14:06 32.732006 -117.176222 194 21ft 0kts
08-Nov-18 14:07 32.732006 -117.176222 194 21ft 0kts
08-Nov-18 14:08 32.732006 -117.176222 194 21ft 0kts
08-Nov-18 14:09 32.732006 -117.176222 194 21ft 0kts
08-Nov-18 14:10 32.732007 -117.176222 194 21ft 0kts
08-Nov-18 14:11 32.732006 -117.176222 194 21ft 0kts
08-Nov-18 14:12 32.732006 -117.176222 194 21ft 0kts
08-Nov-18 14:13 32.732006 -117.176222 194 21ft 0kts
08-Nov-18 14:14 32.732006 -117.176222 194 21ft 0kts
08-Nov-18 14:15 32.732006 -117.176222 194 21ft 0kts
08-Nov-18 14:16 32.732006 -117.176222 194 21ft 0kts
08-Nov-18 14:17 32.731978 -117.176231 194 21ft 2kts
08-Nov-18 14:18 32.730905 -117.175486 138 20ft 0kts
08-Nov-18 14:19 32.730197 -117.175809 285 19ft 19kts
08-Nov-18 14:20 32.734514 -117.194854 285 579ft 68kts
08-Nov-18 14:21 32.744509 -117.213961 317 1292ft 74kts
08-Nov-18 14:22 32.761018 -117.229164 319 1982ft 75kts
08-Nov-18 14:23 32.777837 -117.243855 319 2676ft 75kts
08-Nov-18 14:24 32.796301 -117.255283 337 3360ft 76kts
08-Nov-18 14:25 32.816186 -117.261802 337 4040ft 72kts
08-Nov-18 14:26 32.835097 -117.267525 337 4657ft 70kts
08-Nov-18 14:27 32.853578 -117.272782 337 5233ft 68kts
08-Nov-18 14:28 32.871978 -117.277673 337 5767ft 69kts
08-Nov-18 14:29 32.892539 -117.284031 335 6030ft 95kts
08-Nov-18 14:30 32.920326 -117.295645 334 6016ft 109kts
08-Nov-18 14:31 32.949093 -117.307712 334 6015ft 110kts
08-Nov-18 14:32 32.977936 -117.319622 334 6015ft 111kts
08-Nov-18 14:33 33.006946 -117.331657 334 6015ft 111kts
08-Nov-18 14:34 33.036105 -117.343854 334 6015ft 111kts
08-Nov-18 14:35 33.065575 -117.355369 336 6015ft 112kts
08-Nov-18 14:36 33.095376 -117.366672 337 6015ft 112kts
08-Nov-18 14:37 33.123717 -117.377599 337 6016ft 112kts
08-Nov-18 14:38 33.153371 -117.389101 337 6017ft 113kts
08-Nov-18 14:39 33.183208 -117.400664 337 6018ft 113kts
08-Nov-18 14:40 33.213100 -117.412241 337 6019ft 113kts
08-Nov-18 14:41 33.243093 -117.423849 337 6020ft 113kts
08-Nov-18 14:42 33.271680 -117.437934 310 6021ft 109kts
08-Nov-18 14:43 33.292972 -117.464051 310 6023ft 109kts
08-Nov-18 14:44 33.314048 -117.490087 311 6025ft 109kts
08-Nov-18 14:45 33.335000 -117.516066 311 6027ft 108kts
08-Nov-18 14:46 33.352402 -117.537728 311 6028ft 108kts
08-Nov-18 14:47 33.376474 -117.567836 311 6030ft 108kts
08-Nov-18 14:48 33.396923 -117.593554 311 6032ft 107kts
08-Nov-18 14:49 33.413872 -117.614942 311 6033ft 107kts
08-Nov-18 14:50 33.437872 -117.645121 311 6033ft 107kts
08-Nov-18 14:51 33.458195 -117.670592 310 6035ft 108kts
08-Nov-18 14:52 33.475694 -117.692453 311 6035ft 109kts
08-Nov-18 14:53 33.504401 -117.703278 347 6035ft 114kts
08-Nov-18 14:54 33.535692 -117.708093 347 6035ft 115kts
08-Nov-18 14:55 33.567107 -117.712962 348 6035ft 115kts
08-Nov-18 14:56 33.599056 -117.717947 348 6035ft 116kts
08-Nov-18 14:57 33.630703 -117.722813 348 6034ft 115kts
08-Nov-18 14:58 33.662339 -117.727519 348 6033ft 113kts
08-Nov-18 14:59 33.693267 -117.732051 348 6032ft 112kts
08-Nov-18 15:00 33.721310 -117.744765 332 6032ft 109kts
08-Nov-18 15:01 33.748878 -117.759321 332 6032ft 108kts
08-Nov-18 15:02 33.776103 -117.773692 333 6031ft 108kts
08-Nov-18 15:03 33.803376 -117.788430 333 6031ft 108kts
08-Nov-18 15:04 33.833621 -117.789649 356 6029ft 111kts
08-Nov-18 15:05 33.859962 -117.778468 70 6025ft 121kts
08-Nov-18 15:06 33.867188 -117.739053 73 6020ft 121kts
08-Nov-18 15:07 33.872741 -117.699897 73 6024ft 119kts
08-Nov-18 15:08 33.877465 -117.661019 72 6023ft 117kts
08-Nov-18 15:09 33.886099 -117.625857 42 5918ft 103kts
08-Nov-18 15:10 33.904581 -117.600414 42 5206ft 100kts
08-Nov-18 15:11 33.925196 -117.588327 320 4477ft 107kts
08-Nov-18 15:12 33.936342 -117.623031 301 4015ft 104kts
08-Nov-18 15:13 33.947303 -117.656403 302 3524ft 112kts
08-Nov-18 15:14 33.960214 -117.689316 317 2810ft 92kts
08-Nov-18 15:15 33.972709 -117.674572 76 2027ft 93kts
08-Nov-18 15:16 33.973521 -117.646460 67 738ft 86kts
08-Nov-18 15:17 33.974442 -117.635631 12 627ft 8kts
08-Nov-18 15:18 33.974546 -117.635628 343 627ft 0kts
08-Nov-18 15:19 33.974547 -117.635628 346 627ft 0kts
08-Nov-18 15:20 33.974892 -117.639197 0 621ft 0kts
08-Nov-18 15:21 33.977296 -117.639218 2 629ft 13kts
08-Nov-18 15:22 33.978110 -117.637538 82 634ft 0kts
08-Nov-18 15:23 33.978110 -117.637538 82 634ft 0kts
08-Nov-18 15:24 33.978110 -117.637538 82 634ft 0kts
08-Nov-18 15:25 33.978110 -117.637538 82 634ft 0kts
08-Nov-18 15:26 33.978110 -117.637538 82 634ft 0kts
08-Nov-18 15:27 33.978110 -117.637538 82 634ft 0kts
08-Nov-18 15:28 33.978110 -117.637538 82 634ft 0kts
08-Nov-18 15:29 33.978110 -117.637538 82 634ft 0kts
08-Nov-18 15:30 33.978110 -117.637538 82 634ft 0kts
08-Nov-18 15:31 33.978110 -117.637538 82 634ft 0kts
08-Nov-18 15:32 33.978110 -117.637538 82 634ft 0kts

Navigation Log

Ident Type
1. KSAN Airport
2. OCN Navaid
3. KELPS Fix
4. DANAH Fix
5. ELB Navaid
6. JOGIT Fix
7. POXKU Fix
8. EBITE Fix
9. PDZ Navaid
10. KCNO Airport